Terminal Aerodrome Forecast
Issued by NWS

Home | Current Version | Previous Version | Text Only | Print | Product List | Glossary On
Versions: 1 2 3 4 5 6 7 8 9 10 11 12 13 14 15 16 17 18 19 20 21
000
FTAK31 PAJN 261100
TAFAYA
TAF
PAYA 261130Z 2612/2712 00000KT P6SM -RA BKN035 OVC050
     FM261600 09006KT 6SM -RA BR BKN025 OVC035
     FM270200 11005KT P6SM -RA SCT025 OVC040
     FM270800 09003KT 4SM -RA BR BKN015 OVC020
      AMD LTD TO CLD VIS AND WIND 2701/2710=

USA.gov is the U.S. government's official web portal to all federal, state and local government web resources and services.